Station: Lady Elliot Island  

  Atmospheric Gas Attenuation - ITU Rec 676-11   ----------------- dB/100km -----------------
Date Time Temp RH % AH g/m3 Dew Point Wind Direction Speed kph Gust kph Barometer mB Rainfall Since 9am 24GHz 47GHz 76GHz 122GHz 134GHz 241GHz
04/09 20:20 21.5 88 16.59 19.4 15 24 1020.3 0 36.1 37.4 69.7 184.0 198.7 689.3
04/09 20:10 21.6 89 16.88 19.7 15 22 1020.2 0 36.7 37.9 70.9 187.4 202.8 703.9
04/09 20:00 21.5 88 16.59 19.4 15 22 1020.3 0 36.1 37.4 69.7 184.0 198.7 689.3
04/09 19:50 21.6 87 16.5 19.3 13 22 1020.2 0 35.9 37.2 69.2 182.7 197.0 683.6
04/09 19:40 21.7 87 16.59 19.4 15 20 1020.2 0 36.1 37.3 69.5 183.5 198.1 687.5
04/09 19:30 21.7 87 16.59 19.4 15 24 1020 0 36.1 37.3 69.5 183.5 198.1 687.4
04/09 19:20 21.7 86 16.4 19.3 17 26 1019.9 0 35.7 36.9 68.6 181.1 195.2 677.3
04/09 19:10 21.8 87 16.69 19.5 17 24 1019.9 0 36.3 37.4 69.8 184.5 199.3 691.7
04/09 19:00 21.6 87 16.5 19.3 19 26 1019.7 0 35.9 37.2 69.1 182.6 196.9 683.4
04/09 18:50 21.7 88 16.79 19.6 19 24 1019.7 0 36.5 37.7 70.4 186.0 201.1 697.9
04/09 18:40 21.6 88 16.69 19.5 19 22 1019.7 0 36.3 37.5 70.0 185.0 199.8 693.5
04/09 18:30 21.6 88 16.69 19.5 19 22 1019.6 0 36.3 37.5 70.0 184.9 199.8 693.4
04/09 18:20 21.5 87 16.4 19.2 20 24 1019.6 0 35.7 37.0 68.7 181.6 195.7 678.9
04/09 18:10 21.5 87 16.4 19.2 22 26 1019.6 0 35.7 37.0 68.7 181.6 195.7 678.9
04/09 18:00 21.5 86 16.22 19.1 22 26 1019.3 0 35.3 36.7 67.9 179.3 192.9 669.2
04/09 17:50 21.5 86 16.22 19.1 22 26 1019.3 0 35.3 36.7 67.9 179.3 192.9 669.2
04/09 17:40 21.6 85 16.12 19 24 28 1019.2 0 35.1 36.4 67.3 177.8 191.1 663.1
04/09 17:30 21.8 85 16.31 19.2 22 28 1019.2 0 35.5 36.7 68.0 179.7 193.5 671.3
04/09 17:20 22 85 16.5 19.4 20 24 1019.2 0 35.9 37.0 68.7 181.6 195.8 679.5
04/09 17:10 22.1 83 16.2 19.1 22 24 1019.1 0 35.2 36.4 67.2 177.6 191.0 662.8
04/09 17:00 22.3 81 15.99 18.9 19 24 1019.1 0 34.8 35.9 66.1 174.6 187.4 650.2
04/09 16:50 22.4 80 15.89 18.8 20 24 1019.1 0 34.6 35.7 65.6 173.2 185.7 644.2
04/09 16:40 22.7 81 16.36 19.3 20 24 1019.1 0 35.5 36.4 67.5 178.2 191.9 666.0
04/09 16:30 22.8 80 16.25 19.2 20 22 1019.1 0 35.3 36.2 66.9 176.6 190.0 659.4
04/09 16:20 22.9 79 16.14 19.1 19 22 1019.1 0 35.0 35.9 66.3 175.1 188.1 652.8
04/09 16:10 23.1 77 15.92 18.8 17 22 1019.2 0 34.6 35.4 65.1 172.0 184.4 639.9
04/09 16:00 23 76 15.62 18.5 19 22 1019.1 0 33.9 34.9 63.9 168.6 180.2 625.4
04/09 15:50 23.1 75 15.5 18.4 17 24 1019.1 0 33.7 34.7 63.2 167.0 178.3 618.5
04/09 15:40 23.2 75 15.59 18.5 15 20 1019 0 33.9 34.8 63.6 167.8 179.3 622.2
04/09 15:30 23.6 75 15.95 18.9 15 22 1019 0 34.6 35.3 64.8 171.2 183.6 637.2
04/09 15:20 23.5 75 15.86 18.8 17 24 1019 0 34.4 35.2 64.5 170.3 182.5 633.4
04/09 15:10 23.7 75 16.04 19 15 20 1019.1 0 34.8 35.4 65.1 172.1 184.7 640.9
04/09 15:00 23.4 73 15.35 18.3 15 20 1019.1 0 33.3 34.3 62.3 164.6 175.4 608.5
04/09 14:50 23.9 75 16.22 19.2 15 22 1019.3 0 35.1 35.6 65.8 173.8 186.8 648.5
04/09 14:40 23.7 74 15.83 18.8 17 22 1019.4 0 34.3 35.0 64.2 169.6 181.7 630.4
04/09 14:30 23.7 73 15.61 18.6 17 24 1019.6 0 33.9 34.7 63.3 167.0 178.5 619.4
04/09 14:20 23.8 74 15.92 18.9 17 24 1019.7 0 34.5 35.2 64.6 170.5 182.8 634.3
04/09 14:10 23.9 72 15.58 18.5 17 22 1019.8 0 33.8 34.5 63.0 166.3 177.6 616.4
04/09 14:00 23.9 72 15.58 18.5 17 24 1019.9 0 33.8 34.5 63.0 166.3 177.6 616.4
04/09 13:50 23.9 73 15.79 18.8 17 24 1020.1 0 34.2 34.9 63.9 168.8 180.7 627.1
04/09 13:40 23.9 73 15.79 18.8 17 24 1020.2 0 34.2 34.9 63.9 168.8 180.7 627.1
04/09 13:30 24.3 74 16.37 19.4 17 22 1020.4 0 35.4 35.8 66.2 174.8 188.2 653.3
04/09 13:20 24.7 72 16.3 19.3 15 20 1020.6 0 35.2 35.5 65.5 173.1 186.2 646.4
04/09 13:10 24.4 72 16.02 19 15 22 1020.7 0 34.7 35.1 64.6 170.5 182.9 634.8
04/09 13:00 24.3 71 15.71 18.7 17 26 1020.8 0 34.0 34.6 63.3 167.1 178.7 620.1
04/09 12:50 24.5 75 16.78 19.8 17 24 1021 0 36.3 36.5 67.9 179.3 193.8 672.8
04/09 12:40 24.7 75 16.98 20 17 24 1021.1 0 36.7 36.8 68.6 181.3 196.2 681.3
04/09 12:30 25 74 17.03 20 15 22 1021.3 0 36.7 36.7 68.6 181.2 196.2 681.3
04/09 12:20 24.5 75 16.78 19.8 17 24 1021.4 0 36.2 36.5 67.9 179.4 193.8 673.0
04/09 12:10 24.3 74 16.37 19.4 17 24 1021.5 0 35.4 35.8 66.2 175.0 188.3 653.8
04/09 12:00 24.9 72 16.48 19.5 17 24 1021.7 0 35.6 35.8 66.2 174.9 188.5 654.3
04/09 11:50 24.1 70 15.32 18.3 17 24 1021.9 0 33.2 34.1 61.8 163.1 173.7 602.8
04/09 11:40 24.3 73 16.15 19.1 17 22 1022.1 0 34.9 35.5 65.3 172.4 185.2 642.9
04/09 11:30 24.7 73 16.52 19.5 17 24 1022.2 0 35.7 36.0 66.6 175.9 189.6 658.3
04/09 11:20 24.3 72 15.93 18.9 15 22 1022.4 0 34.5 35.1 64.3 169.9 182.1 631.9
04/09 11:10 24.7 74 16.75 19.8 15 24 1022.6 0 36.2 36.4 67.7 178.7 193.0 670.2
04/09 11:00 24.7 74 16.75 19.8 15 22 1022.7 0 36.2 36.4 67.7 178.8 193.1 670.3
04/09 10:50 24.5 72 16.11 19.1 15 20 1022.8 0 34.8 35.3 65.0 171.6 184.2 639.5
04/09 10:40 24.8 76 17.3 20.3 15 22 1022.9 0 37.3 37.4 70.1 185.2 201.0 697.8
04/09 10:30 24.8 74 16.84 19.8 13 20 1023.1 0 36.3 36.5 68.0 179.7 194.2 674.2
04/09 10:20 24.5 76 17.01 20 15 20 1023.2 0 36.7 37.0 69.1 182.4 197.5 685.7
04/09 10:10 23.8 74 15.92 18.9 15 19 1023.3 0 34.5 35.3 64.8 171.0 183.2 635.9
04/09 10:00 23.7 74 15.83 18.8 15 22 1023.4 0 34.3 35.2 64.5 170.2 182.2 632.2
04/09 09:50 24.1 76 16.63 19.6 15 24 1023.4 0 36.0 36.5 67.7 178.8 192.9 669.7
04/09 09:40 23.8 75 16.13 19.1 15 22 1023.3 0 34.9 35.7 65.7 173.5 186.3 646.6
04/09 09:30 23.9 76 16.44 19.4 15 20 1023.3 0 35.6 36.2 67.0 177.0 190.6 661.6
04/09 09:20 23.9 75 16.22 19.2 15 20 1023.3 0 35.1 35.8 66.0 174.3 187.4 650.4
04/09 09:10 23.4 76 15.98 18.9 15 22 1023.3 0 34.6 35.6 65.4 172.6 185.1 642.3
04/09 09:00 23.8 76 16.35 19.3 13 19 1023.3 0 35.4 36.1 66.7 176.1 189.5 657.9
04/09 08:50 23.4 76 15.98 18.9 15 22 1023.4 0 34.6 35.6 65.4 172.6 185.1 642.4
04/09 08:40 23.2 76 15.8 18.7 13 20 1023.4 0 34.3 35.4 64.7 170.9 182.9 634.8
04/09 08:30 23.5 77 16.28 19.2 13 22 1023.4 0 35.3 36.1 66.6 176.0 189.3 656.9
04/09 08:20 23 77 15.83 18.7 13 20 1023.4 0 34.4 35.5 65.0 171.7 183.9 638.0
04/09 08:10 23.1 78 16.12 19.1 13 20 1023.3 0 35.0 36.0 66.3 175.0 187.9 652.0
04/09 08:00 22.7 79 15.96 18.9 13 20 1023.2 0 34.7 35.8 65.9 173.9 186.5 647.1
04/09 07:50 22.5 79 15.78 18.7 15 20 1023.1 0 34.3 35.6 65.2 172.2 184.3 639.5
04/09 07:40 22.6 81 16.27 19.2 15 20 1023 0 35.3 36.4 67.4 177.9 191.3 664.0
04/09 07:30 22.3 81 15.99 18.9 15 20 1023 0 34.8 36.1 66.3 175.2 187.9 652.0
04/09 07:20 22.3 82 16.19 19.1 15 20 1022.9 0 35.2 36.4 67.3 177.6 190.9 662.4
04/09 07:10 22 81 15.72 18.6 15 20 1022.8 0 34.2 35.7 65.4 172.6 184.6 640.5
04/09 07:00 21.8 81 15.54 18.4 15 1022.6 0 33.8 35.4 64.7 170.8 182.4 632.7
04/09 06:50 21.6 83 15.74 18.6 15 20 1022.6 0 34.3 35.9 65.8 173.7 185.9 644.8
04/09 06:40 21.4 83 15.56 18.4 13 20 1022.4 0 33.9 35.6 65.1 171.9 183.6 637.0
04/09 06:29 21.3 84 15.66 18.5 11 15 1022.3 0 34.1 35.8 65.7 173.3 185.4 643.0
04/09 06:20 21.3 85 15.84 18.7 15 22 1022.2 0 34.5 36.2 66.5 175.5 188.0 652.4
04/09 06:09 21.1 84 15.48 18.3 13 17 1022 0 33.8 35.6 65.0 171.6 183.1 635.2
04/09 06:00 21 84 15.39 18.2 15 22 1021.9 0 33.6 35.5 64.7 170.7 182.0 631.3
04/09 05:50 21.1 85 15.66 18.5 17 24 1021.8 0 34.2 35.9 65.8 173.7 185.8 644.5
04/09 05:40 21 85 15.57 18.4 13 24 1021.6 0 34.0 35.8 65.5 172.8 184.7 640.5
04/09 05:30 21.1 85 15.66 18.5 15 22 1021.5 0 34.2 35.9 65.8 173.7 185.7 644.3
04/09 05:20 21.2 84 15.57 18.4 19 28 1021.4 0 34.0 35.7 65.3 172.3 184.1 638.7
04/09 05:10 21.2 84 15.57 18.4 19 28 1021.3 0 34.0 35.7 65.3 172.3 184.1 638.7
04/09 05:00 21.1 83 15.29 18.1 19 28 1021.1 0 33.4 35.2 64.1 169.1 180.2 624.9
04/09 04:49 21.2 85 15.75 18.6 17 20 1021 0 34.4 36.0 66.1 174.5 186.8 647.9
04/09 04:40 21.1 85 15.66 18.5 20 28 1020.7 0 34.2 35.9 65.7 173.6 185.6 644.0
04/09 04:30 21.1 84 15.48 18.3 20 28 1020.7 0 33.8 35.5 64.9 171.4 182.9 634.6
04/09 04:20 21 84 15.39 18.2 17 24 1020.7 0 33.6 35.4 64.6 170.5 181.8 630.7
04/09 04:10 21 84 15.39 18.2 17 26 1020.6 0 33.6 35.4 64.6 170.5 181.8 630.7
04/09 03:59 21.1 85 15.66 18.5 17 24 1020.6 0 34.2 35.9 65.7 173.6 185.6 643.9
04/09 03:50 21.1 84 15.48 18.3 17 26 1020.7 0 33.8 35.5 64.9 171.4 182.9 634.6

Last Refresh: 04-Sep-2026 20:08:43

Bureau of Meteorology